SPTN/TCQ METAR and TAF weather

Enter ICAO airport designator
Station Type Date Time Source
SPTN METAR 2021/09/24 23:00 UTC NOAA

SPTN 242300Z 22007KT CAVOK 15/10 Q1016 RMK PP000


Station Type Date Time Source
SPTN Decoded METAR 2021/09/24 23:00 UTC NOAA

Tacna, Peru (SPTN) 18-04S 070-18W 469M
Sep 24, 2021 - 07:00 PM EDT / 2021.09.24 2300 UTC
Wind: from the SW (220 degrees) at 8 MPH (7 KT):0
Visibility: greater than 7 mile(s):0
Temperature: 59 F (15 C)
Dew Point: 50 F (10 C)
Relative Humidity: 72%
Pressure (altimeter): 30.00 in. Hg (1016 hPa)
ob: SPTN 242300Z 22007KT CAVOK 15/10 Q1016 RMK PP000
cycle: 23

Station Type Date Time Source
SPTN TAF 2021/09/24 18:33 UTC NOAA

TAF SPTN 241700Z 2418/2518 22008KT CAVOK TX21/2419Z TN11/2511Z
FM250000 VRB02KT 8000 OVC017
FM251500 22006KT 9999 SCT025

Example: see airport list